createdAt,value
2018-02-20T00:00:55.102Z,9.60
2018-02-20T00:01:57.569Z,9.27
2018-02-20T00:03:00.058Z,7.63
2018-02-20T00:04:02.545Z,10.50
2018-02-20T00:05:05.038Z,5.18
2018-02-20T00:06:07.526Z,8.05
2018-02-20T00:07:10.015Z,4.83
2018-02-20T00:08:12.486Z,7.07
2018-02-20T00:09:14.960Z,5.10
2018-02-20T00:10:17.426Z,7.10
2018-02-20T00:11:19.918Z,5.80
2018-02-20T00:12:22.412Z,8.07
2018-02-20T00:13:24.894Z,7.77
2018-02-20T00:14:27.388Z,12.05
2018-02-20T00:15:29.851Z,6.50
2018-02-20T00:16:32.313Z,8.73
2018-02-20T00:17:34.797Z,6.73
2018-02-20T00:18:37.281Z,5.87
2018-02-20T00:19:39.747Z,7.03
2018-02-20T00:20:42.241Z,8.93
2018-02-20T00:21:44.711Z,5.82
2018-02-20T00:22:47.174Z,6.87
2018-02-20T00:23:49.643Z,9.33
2018-02-20T00:24:52.121Z,7.87
2018-02-20T00:25:54.590Z,11.33
2018-02-20T00:26:57.065Z,6.90
2018-02-20T00:27:59.539Z,12.80
2018-02-20T00:29:02.017Z,7.13
2018-02-20T00:30:04.483Z,6.00
2018-02-20T00:31:06.951Z,9.70
2018-02-20T00:32:09.442Z,5.55
2018-02-20T00:33:11.925Z,7.03
2018-02-20T00:34:14.404Z,6.97
2018-02-20T00:35:16.885Z,6.97
2018-02-20T00:36:19.370Z,11.30
2018-02-20T00:37:21.871Z,7.50
2018-02-20T00:38:24.346Z,8.02
2018-02-20T00:39:26.811Z,9.10
2018-02-20T00:40:29.296Z,6.00
2018-02-20T00:41:31.770Z,4.55
2018-02-20T00:42:34.244Z,5.32
2018-02-20T00:43:36.722Z,6.60
2018-02-20T00:44:39.204Z,4.60
2018-02-20T00:45:41.673Z,4.50
2018-02-20T00:46:44.154Z,11.63
2018-02-20T00:47:46.618Z,7.67
2018-02-20T00:48:49.092Z,11.93
2018-02-20T00:49:51.577Z,7.65
2018-02-20T00:50:54.038Z,7.50
2018-02-20T00:51:56.512Z,7.47
2018-02-20T00:52:58.978Z,7.47
2018-02-20T00:54:01.472Z,11.80
2018-02-20T00:55:03.953Z,7.13
2018-02-20T00:56:06.421Z,4.73
2018-02-20T00:57:08.887Z,9.70
2018-02-20T00:58:11.341Z,7.13
2018-02-20T00:59:13.808Z,8.73
2018-02-20T01:00:16.288Z,11.30
2018-02-20T01:01:18.768Z,6.23
2018-02-20T01:02:21.234Z,6.12
2018-02-20T01:03:23.720Z,13.70
2018-02-20T01:04:26.200Z,4.15
2018-02-20T01:05:28.678Z,4.70
2018-02-20T01:06:31.170Z,6.37
2018-02-20T01:07:33.647Z,5.90
2018-02-20T01:08:36.121Z,4.80
2018-02-20T01:09:38.604Z,8.60
2018-02-20T01:10:41.085Z,6.07
2018-02-20T01:11:43.568Z,6.30
2018-02-20T01:12:46.034Z,7.10
2018-02-20T01:13:48.518Z,4.40
2018-02-20T01:14:51.000Z,3.97
2018-02-20T01:15:53.454Z,6.20
2018-02-20T01:16:55.928Z,3.73
2018-02-20T01:17:58.420Z,17.27
2018-02-20T01:19:00.886Z,4.60
2018-02-20T01:20:03.358Z,4.32
2018-02-20T01:21:05.826Z,4.63
2018-02-20T01:22:08.334Z,5.22
2018-02-20T01:23:10.808Z,6.35
2018-02-20T01:24:13.296Z,6.05
2018-02-20T01:25:15.770Z,6.75
2018-02-20T01:26:18.237Z,10.30
2018-02-20T01:27:20.710Z,4.70
2018-02-20T01:28:23.186Z,3.83
2018-02-20T01:29:25.692Z,5.65
2018-02-20T01:30:28.154Z,4.70
2018-02-20T01:58:37.442Z,4.30
2018-02-20T01:59:39.932Z,5.47
2018-02-20T02:00:42.421Z,6.75
2018-02-20T02:01:44.896Z,8.90
2018-02-20T02:02:47.374Z,5.15
2018-02-20T02:03:49.865Z,6.23
2018-02-20T02:04:52.338Z,5.00
2018-02-20T02:05:54.810Z,11.93
2018-02-20T02:06:57.288Z,6.28
2018-02-20T02:07:59.755Z,7.30
2018-02-20T02:09:02.235Z,16.40
2018-02-20T02:10:04.725Z,9.95
2018-02-20T02:11:07.217Z,10.25
2018-02-20T02:12:09.701Z,11.77
2018-02-20T02:13:12.221Z,7.37
2018-02-20T02:14:14.687Z,5.50
2018-02-20T02:54:16.944Z,14.63
2018-02-20T02:55:19.416Z,6.25
2018-02-20T02:56:21.895Z,4.87
2018-02-20T02:57:24.369Z,4.78
2018-02-20T02:58:26.852Z,2.83
2018-02-20T02:59:29.336Z,6.35
2018-02-20T03:00:31.826Z,6.07
2018-02-20T03:01:34.303Z,3.58
2018-02-20T03:02:36.775Z,6.65
2018-02-20T03:03:39.251Z,7.45
2018-02-20T03:04:41.738Z,10.27
2018-02-20T03:05:44.239Z,3.92
2018-02-20T03:06:46.726Z,5.28
2018-02-20T03:07:49.227Z,3.47
2018-02-20T03:08:51.707Z,4.07
2018-02-20T03:09:54.235Z,3.17
2018-02-20T03:10:56.718Z,4.82
2018-02-20T03:11:59.209Z,4.82
2018-02-20T03:13:01.699Z,3.50
2018-02-20T03:14:04.171Z,3.35
2018-02-20T03:15:06.649Z,11.12
2018-02-20T03:16:09.139Z,4.35
2018-02-20T03:17:11.615Z,3.30
2018-02-20T03:18:14.101Z,5.10
2018-02-20T03:19:16.652Z,7.12
2018-02-20T03:20:19.138Z,3.80
2018-02-20T03:21:21.641Z,7.45
2018-02-20T03:22:24.131Z,5.62
2018-02-20T03:23:26.611Z,6.50
2018-02-20T03:24:29.101Z,4.68
2018-02-20T03:25:31.592Z,4.28
2018-02-20T03:26:34.100Z,3.25
2018-02-20T03:27:36.589Z,8.07
2018-02-20T03:28:39.076Z,8.00
2018-02-20T03:29:41.570Z,3.10
2018-02-20T03:30:44.040Z,5.25
2018-02-20T03:31:46.521Z,2.83
2018-02-20T03:32:49.005Z,3.15
2018-02-20T03:33:51.483Z,5.75
2018-02-20T03:34:54.010Z,5.60
2018-02-20T03:35:56.467Z,3.57
2018-02-20T03:36:58.958Z,3.95
2018-02-20T03:38:01.457Z,4.30
2018-02-20T03:39:03.940Z,3.37
2018-02-20T03:40:06.437Z,4.87
2018-02-20T03:41:08.914Z,6.00
2018-02-20T03:42:11.384Z,3.10
2018-02-20T03:43:13.873Z,16.58
2018-02-20T03:44:16.355Z,6.78
2018-02-20T03:45:18.845Z,4.87
2018-02-20T03:46:21.352Z,4.95
2018-02-20T03:47:23.823Z,5.95
2018-02-20T03:48:26.325Z,3.47
2018-02-20T03:49:28.811Z,2.67
2018-02-20T03:50:31.322Z,7.00
2018-02-20T03:51:33.791Z,9.20
2018-02-20T03:52:36.286Z,8.27
2018-02-20T03:53:38.769Z,3.05
2018-02-20T03:54:41.258Z,6.05
2018-02-20T03:55:43.762Z,2.83
2018-02-20T03:56:46.238Z,6.10
2018-02-20T03:57:48.741Z,4.45
2018-02-20T03:58:51.215Z,2.83
2018-02-20T03:59:53.701Z,2.97
2018-02-20T04:00:56.214Z,4.47
2018-02-20T04:01:58.692Z,2.95
2018-02-20T04:03:01.182Z,3.08
2018-02-20T04:04:03.678Z,6.75
2018-02-20T04:05:06.165Z,4.62
2018-02-20T04:06:08.661Z,8.13
2018-02-20T04:07:11.146Z,3.05
2018-02-20T04:08:13.619Z,3.67
2018-02-20T04:09:16.105Z,4.47
2018-02-20T04:10:18.579Z,3.45
2018-02-20T04:11:21.073Z,5.80
2018-02-20T04:12:23.650Z,5.78
2018-02-20T04:13:26.119Z,3.08
2018-02-20T04:14:28.613Z,4.00
2018-02-20T04:15:31.086Z,3.70
2018-02-20T04:16:33.577Z,4.68
2018-02-20T04:17:36.081Z,4.68
2018-02-20T04:18:38.558Z,3.87
2018-02-20T04:19:41.049Z,3.83
2018-02-20T04:20:43.537Z,2.50
2018-02-20T04:21:46.021Z,5.10
2018-02-20T04:22:48.491Z,4.68
2018-02-20T04:23:50.986Z,4.78
2018-02-20T04:24:53.467Z,3.35
2018-02-20T04:25:55.962Z,4.45
2018-02-20T04:26:58.431Z,2.78
2018-02-20T04:28:00.911Z,3.00
2018-02-20T04:29:03.398Z,2.80
2018-02-20T04:30:05.889Z,10.27
2018-02-20T04:31:08.379Z,4.72
2018-02-20T04:32:10.869Z,3.50
2018-02-20T04:33:13.353Z,6.47
2018-02-20T04:34:15.845Z,3.17
2018-02-20T04:35:18.329Z,3.15
2018-02-20T04:36:20.817Z,3.75
2018-02-20T04:37:23.289Z,5.10
2018-02-20T04:38:25.763Z,2.45
2018-02-20T04:39:28.235Z,4.62
2018-02-20T04:40:30.714Z,7.72
2018-02-20T04:41:33.191Z,11.00
2018-02-20T04:42:35.663Z,8.30
2018-02-20T04:43:38.145Z,14.32
2018-02-20T04:44:40.635Z,12.57
2018-02-20T04:45:43.129Z,3.95
2018-02-20T04:46:45.603Z,5.07
2018-02-20T04:47:48.075Z,4.97
2018-02-20T04:48:50.561Z,3.15
2018-02-20T04:49:53.037Z,5.07
2018-02-20T04:50:55.522Z,7.00
2018-02-20T04:51:57.992Z,6.53
2018-02-20T04:53:00.477Z,4.45
2018-02-20T04:54:02.953Z,4.00
2018-02-20T04:55:05.427Z,3.47
2018-02-20T04:56:07.898Z,8.63
2018-02-20T04:57:10.382Z,4.55
2018-02-20T04:58:12.877Z,2.47
2018-02-20T04:59:15.357Z,7.70
2018-02-20T05:00:17.835Z,5.40
2018-02-20T05:01:20.332Z,3.78
2018-02-20T05:02:22.857Z,14.25
2018-02-20T05:03:25.335Z,3.33
2018-02-20T05:04:27.802Z,4.72
2018-02-20T05:05:30.289Z,7.53
2018-02-20T05:06:32.768Z,5.32
2018-02-20T05:07:35.257Z,3.85
2018-02-20T05:08:37.735Z,3.85
2018-02-20T05:09:40.206Z,9.32
2018-02-20T05:10:42.698Z,3.03
2018-02-20T05:11:45.174Z,2.22
2018-02-20T05:12:47.662Z,3.72
2018-02-20T05:13:50.140Z,3.22
2018-02-20T05:14:52.611Z,2.67
2018-02-20T05:15:55.103Z,3.70
2018-02-20T05:16:57.579Z,4.68
2018-02-20T05:18:00.069Z,6.55
2018-02-20T05:19:02.551Z,5.32
2018-02-20T05:20:05.024Z,3.37
2018-02-20T05:21:07.499Z,3.22
2018-02-20T05:22:10.013Z,3.35
2018-02-20T05:23:12.482Z,7.12
2018-02-20T05:24:14.972Z,8.20
2018-02-20T05:25:17.468Z,2.37
2018-02-20T05:26:19.956Z,2.72
2018-02-20T05:27:22.455Z,3.15
2018-02-20T05:28:24.927Z,7.10
2018-02-20T05:29:27.403Z,3.90
2018-02-20T05:30:29.922Z,4.05
2018-02-20T05:31:32.418Z,7.95
2018-02-20T05:32:34.892Z,6.97
2018-02-20T05:33:37.381Z,4.82
2018-02-20T05:34:39.855Z,3.50
2018-02-20T05:35:42.349Z,5.15
2018-02-20T05:36:44.818Z,7.12
2018-02-20T05:37:47.305Z,10.40
2018-02-20T05:38:49.778Z,4.35
2018-02-20T05:39:52.350Z,6.60
2018-02-20T05:40:54.837Z,6.30
2018-02-20T05:41:57.311Z,3.37
2018-02-20T05:42:59.798Z,2.30
2018-02-20T05:44:02.288Z,5.22
2018-02-20T05:45:04.759Z,9.32
2018-02-20T05:46:07.253Z,7.12
2018-02-20T05:47:09.727Z,6.57
2018-02-20T05:48:12.217Z,7.00
2018-02-20T05:49:14.687Z,3.35
2018-02-20T05:50:17.163Z,7.97
2018-02-20T05:51:19.643Z,6.57
2018-02-20T05:52:22.120Z,6.20
2018-02-20T05:53:24.609Z,8.10
2018-02-20T05:54:27.085Z,9.05
2018-02-20T05:55:29.669Z,4.15
2018-02-20T05:56:32.157Z,4.47
2018-02-20T05:57:34.645Z,3.45
2018-02-20T05:58:37.140Z,4.68
2018-02-20T05:59:39.637Z,21.98
2018-02-20T06:00:42.130Z,8.80
2018-02-20T06:01:44.628Z,2.92
2018-02-20T06:02:47.117Z,6.45
2018-02-20T06:03:49.594Z,5.82
2018-02-20T06:04:52.081Z,4.03
2018-02-20T06:05:54.554Z,3.45
2018-02-20T06:06:57.193Z,3.25
2018-02-20T06:07:59.717Z,5.87
2018-02-20T06:09:02.206Z,4.70
2018-02-20T06:10:04.683Z,4.97
2018-02-20T06:11:07.169Z,4.12
2018-02-20T06:12:09.641Z,3.65
2018-02-20T06:13:12.162Z,10.15
2018-02-20T06:14:14.631Z,3.83
2018-02-20T06:15:17.103Z,4.75
2018-02-20T06:16:19.567Z,6.60
2018-02-20T06:17:22.050Z,9.07
2018-02-20T06:18:24.555Z,7.72
2018-02-20T06:19:27.031Z,5.70
2018-02-20T06:20:29.512Z,2.53
2018-02-20T06:21:32.006Z,6.32
2018-02-20T06:22:34.479Z,5.70
2018-02-20T06:23:36.986Z,4.60
2018-02-20T06:24:39.472Z,4.07
2018-02-20T06:25:42.036Z,3.55
2018-02-20T06:26:44.502Z,4.75
2018-02-20T06:27:46.970Z,5.53
2018-02-20T06:28:49.461Z,24.75
2018-02-20T06:29:51.940Z,4.37
2018-02-20T06:30:54.416Z,2.60
2018-02-20T06:31:56.897Z,5.30
2018-02-20T06:32:59.390Z,4.28
2018-02-20T06:34:01.870Z,11.18
2018-02-20T06:35:04.390Z,3.25
2018-02-20T06:36:06.882Z,5.32
2018-02-20T06:37:09.404Z,2.33
2018-02-20T06:38:11.875Z,5.10
2018-02-20T06:39:14.424Z,5.43
2018-02-20T06:40:16.903Z,3.00
2018-02-20T06:41:19.379Z,3.70
2018-02-20T06:42:21.868Z,13.45
2018-02-20T06:43:24.362Z,18.15
2018-02-20T06:44:26.861Z,20.75
2018-02-20T06:45:29.347Z,17.87
2018-02-20T06:46:31.819Z,8.82
2018-02-20T06:47:34.329Z,11.57
2018-02-20T06:48:36.798Z,9.95
2018-02-20T06:49:39.290Z,16.80
2018-02-20T06:50:41.783Z,25.65
2018-02-20T06:51:44.264Z,18.75
2018-02-20T06:52:46.757Z,17.83
2018-02-20T06:53:49.253Z,11.18
2018-02-20T06:54:51.741Z,13.13
2018-02-20T06:55:54.234Z,10.93
2018-02-20T06:56:56.734Z,22.80
2018-02-20T06:57:59.216Z,10.68
2018-02-20T06:59:01.700Z,16.60
2018-02-20T07:00:04.296Z,17.08
2018-02-20T07:01:06.783Z,20.92
2018-02-20T07:02:09.284Z,20.62
2018-02-20T07:03:11.806Z,25.88
2018-02-20T07:04:14.322Z,20.52
2018-02-20T07:05:16.839Z,19.98
2018-02-20T07:06:19.361Z,22.15
2018-02-20T07:07:21.865Z,24.37
2018-02-20T07:08:24.356Z,27.05
2018-02-20T07:09:26.836Z,20.75
2018-02-20T07:10:29.340Z,21.25
2018-02-20T07:11:31.837Z,22.50
2018-02-20T07:12:34.330Z,28.10
2018-02-20T07:13:36.836Z,26.90
2018-02-20T07:14:39.359Z,25.08
2018-02-20T07:15:41.845Z,22.55
2018-02-20T07:16:44.352Z,24.48
2018-02-20T07:17:46.836Z,24.70
2018-02-20T07:18:49.341Z,24.05
2018-02-20T07:19:51.835Z,24.17
2018-02-20T07:20:54.324Z,27.45
2018-02-20T07:21:56.821Z,27.33
2018-02-20T07:22:59.301Z,27.27
2018-02-20T07:24:01.798Z,25.50
2018-02-20T07:25:04.293Z,29.77
2018-02-20T07:26:06.775Z,28.38
2018-02-20T07:27:09.256Z,24.98
2018-02-20T07:28:11.767Z,28.35
2018-02-20T07:29:14.257Z,24.55
2018-02-20T07:30:16.756Z,29.20
2018-02-20T07:31:19.250Z,24.65
2018-02-20T07:32:21.736Z,30.83
2018-02-20T07:33:24.226Z,32.75
2018-02-20T07:34:26.707Z,32.85
2018-02-20T07:35:29.183Z,30.95
2018-02-20T07:36:31.663Z,25.67
2018-02-20T07:37:34.165Z,27.75
2018-02-20T07:38:36.769Z,24.63
2018-02-20T07:39:39.260Z,27.25
2018-02-20T07:40:41.761Z,29.30
2018-02-20T07:41:44.257Z,29.52
2018-02-20T07:42:46.836Z,32.42
2018-02-20T07:43:49.334Z,25.35
2018-02-20T07:44:51.816Z,58.53
2018-02-20T07:45:54.312Z,22.62
2018-02-20T07:46:56.815Z,24.83
2018-02-20T07:47:59.366Z,35.58
2018-02-20T07:49:01.866Z,24.92
2018-02-20T07:50:04.351Z,20.58
2018-02-20T07:51:06.858Z,24.73
2018-02-20T07:52:09.375Z,30.85
2018-02-20T07:53:12.113Z,25.73
2018-02-20T07:54:14.626Z,26.83
2018-02-20T07:55:17.124Z,21.42
2018-02-20T07:56:19.622Z,21.77
2018-02-20T07:57:22.118Z,22.15
2018-02-20T07:58:24.599Z,18.92
2018-02-20T07:59:27.079Z,21.12
2018-02-20T08:00:29.568Z,23.12
2018-02-20T08:01:32.059Z,22.48
2018-02-20T08:02:34.557Z,33.38
2018-02-20T08:03:37.043Z,20.90
2018-02-20T08:04:39.522Z,21.25
2018-02-20T08:05:42.037Z,20.35
2018-02-20T08:06:44.534Z,23.73
2018-02-20T08:07:47.029Z,25.73
2018-02-20T08:08:49.533Z,23.45
2018-02-20T08:09:52.019Z,18.75
2018-02-20T08:10:54.559Z,19.87
2018-02-20T08:11:57.036Z,19.83
2018-02-20T08:12:59.539Z,19.60
2018-02-20T08:14:02.041Z,21.20
2018-02-20T08:15:04.519Z,23.17
2018-02-20T08:16:07.012Z,18.30
2018-02-20T08:17:09.521Z,16.35
2018-02-20T08:18:12.011Z,22.65
2018-02-20T08:19:14.509Z,20.73
2018-02-20T08:20:16.991Z,17.52
2018-02-20T08:21:19.531Z,18.58
2018-02-20T08:22:22.026Z,15.93
2018-02-20T08:23:24.521Z,18.33
2018-02-20T08:24:27.003Z,21.65
2018-02-20T08:25:29.483Z,19.27
2018-02-20T08:26:31.977Z,15.98
2018-02-20T08:27:34.454Z,16.90
2018-02-20T08:28:36.949Z,15.48
2018-02-20T08:29:39.448Z,16.50
2018-02-20T08:30:41.983Z,16.45
2018-02-20T08:31:44.483Z,13.18
2018-02-20T08:32:46.967Z,14.48
2018-02-20T08:33:49.447Z,18.83
2018-02-20T08:34:51.936Z,15.15
2018-02-20T08:35:54.427Z,16.33
2018-02-20T08:36:56.923Z,14.68
2018-02-20T08:37:59.408Z,23.02
2018-02-20T08:39:01.915Z,14.30
2018-02-20T08:40:04.409Z,14.73
2018-02-20T08:41:06.887Z,14.55
2018-02-20T08:42:09.368Z,15.10
2018-02-20T08:43:11.880Z,18.00
2018-02-20T08:44:14.363Z,15.55
2018-02-20T08:45:16.865Z,16.85
2018-02-20T08:46:19.439Z,15.93
2018-02-20T08:47:21.930Z,15.80
2018-02-20T08:48:24.399Z,15.77
2018-02-20T08:49:26.901Z,16.37
2018-02-20T08:50:29.389Z,13.57
2018-02-20T08:51:31.883Z,14.63
2018-02-20T08:52:34.399Z,12.43
2018-02-20T08:53:36.865Z,11.93
2018-02-20T08:54:39.374Z,12.23
2018-02-20T08:55:41.904Z,15.82
2018-02-20T08:56:44.402Z,14.02
2018-02-20T08:57:46.905Z,17.17
2018-02-20T08:58:49.398Z,12.90
2018-02-20T08:59:51.893Z,15.82
2018-02-20T09:00:54.382Z,14.43
2018-02-20T09:01:56.920Z,12.80
2018-02-20T09:02:59.414Z,15.32
2018-02-20T09:04:01.906Z,15.20
2018-02-20T09:05:04.384Z,13.90
2018-02-20T09:06:06.859Z,12.55
2018-02-20T09:07:09.377Z,17.42
2018-02-20T09:08:11.855Z,14.30
2018-02-20T09:09:14.350Z,19.12
2018-02-20T09:10:16.835Z,12.32
2018-02-20T09:11:19.326Z,14.18
2018-02-20T09:12:21.807Z,12.93
2018-02-20T09:13:24.296Z,14.63
2018-02-20T09:14:26.776Z,13.50
2018-02-20T09:15:29.252Z,11.93
2018-02-20T09:16:31.732Z,10.60
2018-02-20T09:17:34.207Z,10.93
2018-02-20T09:18:36.731Z,15.43
2018-02-20T09:19:39.237Z,16.20
2018-02-20T09:20:41.724Z,12.23
2018-02-20T09:21:44.217Z,20.98
2018-02-20T09:22:46.708Z,11.90
2018-02-20T09:23:49.183Z,11.82
2018-02-20T09:24:51.668Z,11.68
2018-02-20T09:25:54.156Z,9.35
2018-02-20T09:26:57.163Z,9.40
2018-02-20T09:27:59.659Z,11.95
2018-02-20T09:29:02.182Z,12.63
2018-02-20T09:30:04.714Z,11.65
2018-02-20T09:31:07.228Z,9.27
2018-02-20T09:32:09.722Z,11.15
2018-02-20T09:33:12.222Z,12.35
2018-02-20T09:34:14.705Z,9.88
2018-02-20T09:35:17.184Z,12.35
2018-02-20T09:36:19.968Z,10.57
2018-02-20T09:37:22.493Z,12.75
2018-02-20T09:38:24.975Z,8.20
2018-02-20T09:39:27.629Z,11.50
2018-02-20T09:40:30.188Z,10.20
2018-02-20T09:41:32.664Z,9.65
2018-02-20T09:42:35.157Z,12.45
2018-02-20T09:43:37.638Z,11.75
2018-02-20T09:44:40.116Z,11.07
2018-02-20T09:45:42.605Z,12.65
2018-02-20T09:46:45.102Z,15.80
2018-02-20T09:47:47.580Z,17.77
2018-02-20T09:48:50.073Z,22.75
2018-02-20T09:49:52.557Z,16.15
2018-02-20T09:50:55.039Z,15.63
2018-02-20T09:51:57.534Z,17.08
2018-02-20T09:53:00.042Z,16.87
2018-02-20T09:54:02.537Z,14.38
2018-02-20T09:55:05.020Z,18.17
2018-02-20T09:56:07.518Z,16.35
2018-02-20T09:57:10.040Z,18.62
2018-02-20T09:58:12.537Z,18.77
2018-02-20T09:59:15.028Z,18.45
2018-02-20T10:00:17.519Z,12.43
2018-02-20T10:01:20.015Z,15.90
2018-02-20T10:02:22.495Z,26.65
2018-02-20T10:03:24.978Z,15.00
2018-02-20T10:04:27.450Z,13.68
2018-02-20T10:05:29.949Z,16.10
2018-02-20T10:06:32.436Z,14.73
2018-02-20T10:07:34.929Z,14.40
2018-02-20T10:08:37.427Z,14.68
2018-02-20T10:09:39.908Z,13.05
2018-02-20T10:10:42.392Z,13.68
2018-02-20T10:11:44.869Z,16.02
2018-02-20T10:12:47.355Z,24.02
2018-02-20T10:13:49.977Z,14.65
2018-02-20T10:14:52.465Z,12.93
2018-02-20T10:15:54.973Z,14.05
2018-02-20T10:16:57.560Z,20.27
2018-02-20T10:18:00.054Z,13.75
2018-02-20T10:19:02.541Z,14.50
2018-02-20T10:20:05.029Z,12.95
2018-02-20T10:21:07.526Z,15.77
2018-02-20T10:22:10.003Z,12.75
2018-02-20T10:23:12.491Z,15.32
2018-02-20T10:24:14.985Z,13.70
2018-02-20T10:25:17.460Z,16.48
2018-02-20T10:26:19.964Z,14.77
2018-02-20T10:27:22.456Z,16.45
2018-02-20T10:28:24.949Z,13.23
2018-02-20T10:29:27.425Z,13.07
2018-02-20T10:30:29.911Z,13.90
2018-02-20T10:31:32.413Z,16.08
2018-02-20T10:32:34.908Z,14.02
2018-02-20T10:33:37.448Z,11.65
2018-02-20T10:34:39.941Z,15.35
2018-02-20T10:35:42.434Z,14.13
2018-02-20T10:36:44.930Z,13.85
2018-02-20T10:37:47.417Z,12.82
2018-02-20T10:38:49.916Z,18.87
2018-02-20T10:39:52.409Z,11.63
2018-02-20T10:40:54.905Z,15.20
2018-02-20T10:41:57.399Z,13.62
2018-02-20T10:42:59.886Z,12.50
2018-02-20T10:44:02.367Z,14.00
2018-02-20T10:45:04.890Z,17.50
2018-02-20T10:46:07.377Z,17.90
2018-02-20T10:47:09.859Z,18.30
2018-02-20T10:48:12.355Z,13.88
2018-02-20T10:49:14.852Z,14.63
2018-02-20T10:50:17.346Z,13.90
2018-02-20T10:51:19.885Z,11.85
2018-02-20T10:52:22.417Z,15.15
2018-02-20T10:53:24.954Z,11.27
2018-02-20T10:54:27.476Z,13.93
2018-02-20T10:55:30.282Z,12.13
2018-02-20T10:56:32.777Z,13.38
2018-02-20T10:57:35.260Z,12.15
2018-02-20T10:58:38.426Z,11.45
2018-02-20T10:59:40.900Z,12.32
2018-02-20T11:00:43.392Z,10.77
2018-02-20T11:01:45.894Z,12.70
2018-02-20T11:02:48.371Z,13.93
2018-02-20T11:03:50.870Z,12.77
2018-02-20T11:04:53.362Z,12.05
2018-02-20T11:05:55.872Z,14.38
2018-02-20T11:06:58.359Z,10.55
2018-02-20T11:08:00.838Z,13.23
2018-02-20T11:09:04.113Z,11.82
2018-02-20T11:10:06.609Z,13.50
2018-02-20T11:11:09.140Z,10.15
2018-02-20T11:12:11.633Z,11.52
2018-02-20T11:13:14.128Z,11.52
2018-02-20T11:14:16.627Z,12.65
2018-02-20T11:15:19.103Z,11.40
2018-02-20T11:16:21.598Z,12.20
2018-02-20T11:17:24.096Z,11.02
2018-02-20T11:18:26.612Z,12.20
2018-02-20T11:19:29.101Z,11.15
2018-02-20T11:20:31.593Z,11.30
2018-02-20T11:21:34.067Z,11.95
2018-02-20T11:22:36.543Z,9.13
2018-02-20T11:23:39.058Z,11.95
2018-02-20T11:24:41.564Z,14.32
2018-02-20T11:25:44.053Z,11.82
2018-02-20T11:26:46.528Z,10.40
2018-02-20T11:27:49.007Z,10.50
2018-02-20T11:28:51.481Z,9.55
2018-02-20T11:29:53.974Z,9.55
2018-02-20T11:30:56.524Z,10.43
2018-02-20T11:31:59.110Z,11.30
2018-02-20T11:33:01.601Z,9.10
2018-02-20T11:34:04.079Z,10.32
2018-02-20T11:35:06.573Z,7.97
2018-02-20T11:36:09.157Z,9.02
2018-02-20T11:37:11.671Z,9.40
2018-02-20T11:38:14.167Z,10.48
2018-02-20T11:39:16.654Z,10.77
2018-02-20T11:40:19.123Z,8.90
2018-02-20T11:41:21.621Z,9.15
2018-02-20T11:42:24.122Z,11.80
2018-02-20T11:43:26.610Z,8.90
2018-02-20T11:44:29.102Z,11.05
2018-02-20T11:45:31.589Z,9.93
2018-02-20T11:46:34.062Z,9.63
2018-02-20T11:47:36.544Z,9.43
2018-02-20T11:48:39.027Z,9.43
2018-02-20T11:49:41.529Z,10.35
2018-02-20T11:50:44.021Z,9.27
2018-02-20T11:51:46.502Z,9.20
2018-02-20T11:52:48.976Z,9.07
2018-02-20T11:53:51.452Z,10.45
2018-02-20T11:54:54.008Z,8.93
2018-02-20T11:55:56.492Z,9.27
2018-02-20T11:56:58.981Z,8.95
2018-02-20T11:58:01.455Z,8.98
2018-02-20T11:59:03.946Z,9.63
2018-02-20T12:00:06.428Z,12.13
2018-02-20T12:01:08.903Z,6.32
2018-02-20T12:02:11.378Z,9.48
2018-02-20T12:03:13.860Z,8.85
2018-02-20T12:04:16.350Z,10.23
2018-02-20T12:05:18.843Z,8.20
2018-02-20T12:06:21.334Z,6.72
2018-02-20T12:07:23.821Z,8.52
2018-02-20T12:08:26.315Z,10.05
2018-02-20T12:09:28.813Z,8.55
2018-02-20T12:10:31.306Z,8.90
2018-02-20T12:11:33.792Z,9.05
2018-02-20T12:12:36.264Z,7.68
2018-02-20T12:13:38.748Z,10.60
2018-02-20T12:14:41.256Z,10.18
2018-02-20T12:15:43.766Z,8.93
2018-02-20T12:16:46.255Z,8.57
2018-02-20T12:17:48.741Z,9.35
2018-02-20T12:18:51.233Z,7.80
2018-02-20T12:19:53.707Z,8.50
2018-02-20T12:20:56.193Z,8.98
2018-02-20T12:21:58.669Z,7.68
2018-02-20T12:23:01.142Z,8.90
2018-02-20T12:24:03.641Z,8.35
2018-02-20T12:25:06.111Z,8.95
2018-02-20T12:26:08.588Z,8.27
2018-02-20T12:27:11.060Z,6.85
2018-02-20T12:28:13.555Z,7.05
2018-02-20T12:29:16.046Z,9.32
2018-02-20T12:30:18.542Z,7.03
2018-02-20T12:31:21.019Z,9.02
2018-02-20T12:32:23.514Z,7.82
2018-02-20T12:33:26.006Z,7.43
2018-02-20T12:34:28.493Z,6.97
2018-02-20T12:35:30.975Z,6.62
2018-02-20T12:36:33.451Z,6.57
2018-02-20T12:37:35.930Z,6.72
2018-02-20T12:38:38.419Z,6.75
2018-02-20T12:39:40.909Z,8.30
2018-02-20T12:40:43.395Z,5.93
2018-02-20T12:41:45.871Z,5.93
2018-02-20T12:42:48.352Z,7.45
2018-02-20T12:43:50.833Z,7.25
2018-02-20T12:44:53.313Z,6.53
2018-02-20T12:45:55.779Z,7.87
2018-02-20T12:46:58.243Z,6.90
2018-02-20T12:48:00.780Z,6.55
2018-02-20T12:49:03.233Z,7.53
2018-02-20T12:50:05.801Z,7.18
2018-02-20T12:51:08.280Z,6.50
2018-02-20T12:52:10.761Z,6.20
2018-02-20T12:53:13.266Z,6.78
2018-02-20T12:54:15.835Z,8.23
2018-02-20T12:55:18.352Z,6.97
2018-02-20T12:56:20.830Z,7.00
2018-02-20T12:57:23.317Z,6.80
2018-02-20T12:58:25.807Z,5.67
2018-02-20T12:59:28.275Z,4.93
2018-02-20T13:00:30.769Z,5.28
2018-02-20T13:01:33.253Z,7.27
2018-02-20T13:02:35.733Z,6.57
2018-02-20T13:03:38.203Z,7.07
2018-02-20T13:04:40.685Z,6.93
2018-02-20T13:05:43.179Z,6.20
2018-02-20T13:06:45.655Z,9.00
2018-02-20T13:07:48.133Z,6.23
2018-02-20T13:08:50.614Z,5.10
2018-02-20T13:09:53.083Z,5.27
2018-02-20T13:10:55.590Z,6.60
2018-02-20T13:11:58.093Z,5.13
2018-02-20T13:13:00.602Z,8.90
2018-02-20T13:14:03.142Z,5.77
2018-02-20T13:15:05.612Z,5.57
2018-02-20T13:16:08.079Z,6.00
2018-02-20T13:17:10.558Z,5.37
2018-02-20T13:18:13.033Z,7.50
2018-02-20T13:19:15.504Z,6.27
2018-02-20T13:20:17.971Z,4.57
2018-02-20T13:21:20.484Z,5.93
2018-02-20T13:22:22.946Z,5.80
2018-02-20T13:23:25.425Z,6.83
2018-02-20T13:24:27.916Z,6.53
2018-02-20T13:25:30.384Z,6.67
2018-02-20T13:26:32.847Z,5.80
2018-02-20T13:27:35.330Z,6.20
2018-02-20T13:28:37.803Z,5.70
2018-02-20T13:29:40.272Z,6.83
2018-02-20T13:30:42.761Z,5.80
2018-02-20T13:31:45.232Z,5.67
2018-02-20T13:32:47.700Z,7.73
2018-02-20T13:33:50.167Z,5.53
2018-02-20T13:34:52.637Z,6.70
2018-02-20T13:35:55.122Z,6.17
2018-02-20T13:36:57.586Z,5.80
2018-02-20T13:38:00.056Z,5.30
2018-02-20T13:39:02.536Z,10.50
2018-02-20T13:40:05.018Z,5.50
2018-02-20T13:41:07.505Z,7.10
2018-02-20T13:42:09.971Z,6.40
2018-02-20T13:43:12.439Z,5.80
2018-02-20T13:44:14.907Z,5.60
2018-02-20T13:45:17.371Z,6.33
2018-02-20T13:46:19.849Z,5.33
2018-02-20T13:47:22.321Z,6.17
2018-02-20T13:48:24.805Z,5.00
2018-02-20T13:49:27.282Z,4.67
2018-02-20T13:50:29.750Z,7.63
2018-02-20T13:51:32.237Z,5.87
2018-02-20T13:52:34.715Z,6.83
2018-02-20T13:53:37.197Z,6.63
2018-02-20T13:54:39.715Z,4.60
2018-02-20T13:55:42.201Z,5.47
2018-02-20T13:56:44.689Z,6.07
2018-02-20T13:57:47.187Z,4.83
2018-02-20T13:58:49.666Z,4.97
2018-02-20T13:59:52.139Z,5.73
2018-02-20T14:00:54.621Z,4.70
2018-02-20T14:01:57.098Z,5.57
2018-02-20T14:02:59.583Z,6.40
2018-02-20T14:04:02.073Z,4.70
2018-02-20T14:05:04.542Z,6.20
2018-02-20T14:06:07.010Z,4.47
2018-02-20T14:07:09.483Z,4.60
2018-02-20T14:08:11.956Z,5.70
2018-02-20T14:09:14.442Z,5.30
2018-02-20T14:10:16.926Z,5.00
2018-02-20T14:11:19.416Z,5.33
2018-02-20T14:12:21.904Z,4.77
2018-02-20T14:13:24.389Z,5.80
2018-02-20T14:14:26.920Z,5.53
2018-02-20T14:15:29.395Z,5.37
2018-02-20T14:16:31.864Z,5.10
2018-02-20T14:17:34.341Z,6.00
2018-02-20T14:18:36.817Z,5.70
2018-02-20T14:19:39.283Z,5.00
2018-02-20T14:20:41.775Z,7.50
2018-02-20T14:21:44.262Z,5.00
2018-02-20T14:22:46.841Z,4.80
2018-02-20T14:23:49.335Z,4.87
2018-02-20T14:24:51.806Z,5.90
2018-02-20T14:25:54.532Z,4.40
2018-02-20T14:26:57.239Z,5.17
2018-02-20T14:27:59.717Z,5.80
2018-02-20T14:29:02.194Z,4.50
2018-02-20T14:30:04.724Z,4.93
2018-02-20T14:31:07.187Z,5.10
2018-02-20T14:32:09.662Z,3.80
2018-02-20T14:33:12.150Z,4.13
2018-02-20T14:34:14.634Z,4.20
2018-02-20T14:35:17.115Z,5.10
2018-02-20T14:36:19.659Z,4.57
2018-02-20T14:37:22.140Z,5.20
2018-02-20T14:38:24.676Z,4.60
2018-02-20T14:39:27.147Z,3.70
2018-02-20T14:40:29.639Z,4.20
2018-02-20T14:41:32.119Z,4.33
2018-02-20T14:42:34.827Z,4.93
2018-02-20T14:43:37.478Z,4.10
2018-02-20T14:44:39.989Z,5.33
2018-02-20T14:45:42.488Z,4.33
2018-02-20T14:46:45.067Z,5.70
2018-02-20T14:47:47.536Z,5.23